createdAt,value
2018-01-12T00:01:05.949Z,204.97
2018-01-12T00:03:32.508Z,168.23
2018-01-12T00:05:58.984Z,184.13
2018-01-12T00:08:25.627Z,176.10
2018-01-12T00:10:53.218Z,181.80
2018-01-12T00:13:19.598Z,156.30
2018-01-12T00:15:46.441Z,154.23
2018-01-12T00:18:13.618Z,173.13
2018-01-12T00:20:40.052Z,157.57
2018-01-12T00:23:12.014Z,175.07
2018-01-12T00:25:39.279Z,156.20
2018-01-12T00:28:05.766Z,161.30
2018-01-12T00:30:33.036Z,155.50
2018-01-12T00:32:59.602Z,161.07
2018-01-12T00:35:26.130Z,144.77
2018-01-12T00:37:52.610Z,139.83
2018-01-12T00:40:19.173Z,167.90
2018-01-12T00:42:45.876Z,152.47
2018-01-12T00:45:13.799Z,137.07
2018-01-12T00:47:40.353Z,168.67
2018-01-12T00:50:07.010Z,136.20
2018-01-12T00:52:34.437Z,140.03
2018-01-12T00:55:01.039Z,155.57
2018-01-12T00:57:27.597Z,141.87
2018-01-12T00:59:54.616Z,156.13
2018-01-12T01:02:21.179Z,150.03
2018-01-12T01:04:47.809Z,151.37
2018-01-12T01:07:14.466Z,160.17
2018-01-12T01:09:41.124Z,142.03
2018-01-12T01:12:07.670Z,147.60
2018-01-12T01:14:34.414Z,140.20
2018-01-12T01:17:01.723Z,150.87
2018-01-12T01:19:28.171Z,145.93
2018-01-12T01:21:55.777Z,154.07
2018-01-12T01:24:23.759Z,139.40
2018-01-12T01:26:50.298Z,131.37
2018-01-12T01:29:16.902Z,130.90
2018-01-12T01:31:44.362Z,132.13
2018-01-12T01:34:11.661Z,106.30
2018-01-12T01:36:39.481Z,115.90
2018-01-12T01:39:06.218Z,118.20
2018-01-12T01:41:33.519Z,110.63
2018-01-12T01:44:00.377Z,123.60
2018-01-12T01:46:27.061Z,114.57
2018-01-12T01:48:53.714Z,124.33
2018-01-12T01:51:20.458Z,109.00
2018-01-12T01:53:47.071Z,108.23
2018-01-12T01:56:15.045Z,115.77
2018-01-12T01:58:42.273Z,126.50
2018-01-12T02:01:08.758Z,118.53
2018-01-12T02:03:35.256Z,113.83
2018-01-12T02:06:02.571Z,111.03
2018-01-12T02:08:29.148Z,118.37
2018-01-12T02:10:55.731Z,108.43
2018-01-12T02:13:22.821Z,102.63
2018-01-12T02:15:49.706Z,119.17
2018-01-12T02:18:16.290Z,114.40
2018-01-12T02:20:43.654Z,112.43
2018-01-12T02:23:10.139Z,111.67
2018-01-12T02:25:36.748Z,100.70
2018-01-12T02:28:04.804Z,110.67
2018-01-12T02:30:32.143Z,103.87
2018-01-12T02:32:58.619Z,111.27
2018-01-12T02:35:26.008Z,114.23
2018-01-12T02:37:53.287Z,122.07
2018-01-12T02:40:19.827Z,134.07
2018-01-12T02:42:46.401Z,111.83
2018-01-12T02:45:12.968Z,124.23
2018-01-12T02:47:39.954Z,129.00
2018-01-12T02:50:06.851Z,115.10
2018-01-12T02:52:33.366Z,128.00
2018-01-12T02:54:59.853Z,110.83
2018-01-12T02:57:27.252Z,126.57
2018-01-12T02:59:53.786Z,125.80
2018-01-12T03:02:20.632Z,136.13
2018-01-12T03:04:47.133Z,133.83
2018-01-12T03:07:15.296Z,129.57
2018-01-12T03:09:42.532Z,135.87
2018-01-12T03:12:09.346Z,158.83
2018-01-12T03:14:35.891Z,171.07
2018-01-12T03:17:02.768Z,122.43
2018-01-12T03:19:30.369Z,134.10
2018-01-12T03:21:56.881Z,151.40
2018-01-12T03:24:23.415Z,131.37
2018-01-12T03:26:52.415Z,152.17
2018-01-12T03:29:19.692Z,147.33
2018-01-12T03:31:46.986Z,170.60
2018-01-12T03:34:14.180Z,169.13
2018-01-12T03:36:40.690Z,142.40
2018-01-12T03:39:07.945Z,183.53
2018-01-12T03:41:35.154Z,170.83
2018-01-12T03:44:01.734Z,151.57
2018-01-12T03:46:28.300Z,184.83
2018-01-12T03:48:54.834Z,172.47
2018-01-12T03:51:21.442Z,137.20
2018-01-12T03:53:48.013Z,163.00
2018-01-12T03:56:14.929Z,150.90
2018-01-12T03:58:41.482Z,170.17
2018-01-12T04:01:07.998Z,179.40
2018-01-12T04:03:36.616Z,126.00
2018-01-12T04:06:03.166Z,157.17
2018-01-12T04:08:31.338Z,170.00
2018-01-12T04:10:58.522Z,178.27
2018-01-12T04:13:25.039Z,181.17
2018-01-12T04:15:52.349Z,157.50
2018-01-12T04:18:18.934Z,155.53
2018-01-12T04:20:47.122Z,173.57
2018-01-12T04:23:14.524Z,156.93
2018-01-12T04:25:41.423Z,142.77
2018-01-12T04:28:08.805Z,198.57
2018-01-12T04:30:35.398Z,179.60
2018-01-12T04:33:02.785Z,179.43
2018-01-12T04:35:29.397Z,150.50
2018-01-12T04:37:55.966Z,151.03
2018-01-12T04:40:23.238Z,139.97
2018-01-12T04:42:52.005Z,158.67
2018-01-12T04:48:15.366Z,154.00
2018-01-12T04:50:43.098Z,136.03
2018-01-12T04:53:10.329Z,138.70
2018-01-12T04:55:37.225Z,104.77
2018-01-12T04:58:05.793Z,134.37
2018-01-12T05:00:33.242Z,136.03
2018-01-12T05:03:03.958Z,133.40
2018-01-12T05:05:30.534Z,135.23
2018-01-12T05:07:57.066Z,131.07
2018-01-12T05:10:23.582Z,112.00
2018-01-12T05:12:50.508Z,133.40
2018-01-12T05:15:17.053Z,123.90
2018-01-12T05:17:43.702Z,109.03
2018-01-12T05:20:10.826Z,112.33
2018-01-12T05:22:38.801Z,98.83
2018-01-12T05:25:05.392Z,113.37
2018-01-12T05:27:32.444Z,101.03
2018-01-12T05:30:00.750Z,118.33
2018-01-12T05:32:27.819Z,106.47
2018-01-12T05:34:54.414Z,97.30
2018-01-12T05:37:20.957Z,128.93
2018-01-12T05:39:48.947Z,99.40
2018-01-12T05:42:15.999Z,95.47
2018-01-12T05:44:42.516Z,106.90
2018-01-12T05:47:09.735Z,96.73
2018-01-12T05:49:37.321Z,104.40
2018-01-12T05:52:05.333Z,102.03
2018-01-12T05:54:32.547Z,113.53
2018-01-12T05:56:59.834Z,105.53
2018-01-12T05:59:27.416Z,126.10
2018-01-12T06:02:06.198Z,108.93
2018-01-12T06:04:45.278Z,112.47
2018-01-12T06:07:11.833Z,105.53
2018-01-12T06:09:38.608Z,108.17
2018-01-12T06:12:06.080Z,117.53
2018-01-12T06:14:33.646Z,103.67
2018-01-12T06:17:01.553Z,85.83
2018-01-12T06:19:28.132Z,82.77
2018-01-12T06:21:54.887Z,82.07
2018-01-12T06:24:22.231Z,66.40
2018-01-12T06:26:50.370Z,91.60
2018-01-12T06:29:17.426Z,77.07
2018-01-12T06:31:45.669Z,62.87
2018-01-12T06:34:12.901Z,92.00
2018-01-12T06:36:40.238Z,77.50
2018-01-12T06:39:07.177Z,70.37
2018-01-12T06:41:34.897Z,77.40
2018-01-12T06:44:02.156Z,69.10
2018-01-12T06:46:28.738Z,75.57
2018-01-12T06:48:56.453Z,65.77
2018-01-12T06:51:23.353Z,61.93
2018-01-12T06:53:49.914Z,61.23
2018-01-12T06:56:17.450Z,67.60
2018-01-12T06:58:45.743Z,52.67
2018-01-12T07:01:13.966Z,51.63
2018-01-12T07:03:42.217Z,56.40
2018-01-12T07:06:10.392Z,53.20
2018-01-12T07:08:38.586Z,50.73
2018-01-12T07:11:05.572Z,51.93
2018-01-12T07:13:32.145Z,44.60
2018-01-12T07:15:58.675Z,45.63
2018-01-12T07:18:25.569Z,51.47
2018-01-12T07:21:04.421Z,48.67
2018-01-12T07:23:46.096Z,41.57
2018-01-12T07:26:14.223Z,47.47
2018-01-12T07:28:42.377Z,38.87
2018-01-12T07:31:10.424Z,35.70
2018-01-12T07:33:37.017Z,52.10
2018-01-12T07:36:05.238Z,44.20
2018-01-12T07:38:31.706Z,49.20
2018-01-12T07:40:59.832Z,53.10
2018-01-12T07:43:26.361Z,52.13
2018-01-12T07:46:03.618Z,49.87
2018-01-12T07:48:31.794Z,53.47
2018-01-12T07:50:59.928Z,53.87
2018-01-12T07:53:26.804Z,54.87
2018-01-12T07:55:54.932Z,63.73
2018-01-12T07:58:22.628Z,52.13
2018-01-12T08:00:55.083Z,59.47
2018-01-12T08:03:21.557Z,48.63
2018-01-12T08:05:49.781Z,46.80
2018-01-12T08:08:16.334Z,40.70
2018-01-12T08:10:42.845Z,46.30
2018-01-12T08:13:10.083Z,38.23
2018-01-12T08:15:36.635Z,37.70
2018-01-12T08:18:03.969Z,39.00
2018-01-12T08:20:30.504Z,29.13
2018-01-12T08:22:58.555Z,25.47
2018-01-12T08:25:26.938Z,28.20
2018-01-12T08:27:54.252Z,24.80
2018-01-12T08:30:22.414Z,32.50
2018-01-12T08:32:49.696Z,29.70
2018-01-12T08:35:16.719Z,24.87
2018-01-12T08:37:43.674Z,26.97
2018-01-12T08:40:11.493Z,27.93
2018-01-12T08:42:38.070Z,18.70
2018-01-12T08:45:04.963Z,24.37
2018-01-12T08:47:33.160Z,34.37
2018-01-12T08:49:59.687Z,27.70
2018-01-12T08:52:26.237Z,26.83
2018-01-12T08:54:52.951Z,28.63
2018-01-12T08:57:20.565Z,31.73
2018-01-12T08:59:49.298Z,23.03
2018-01-12T09:02:16.558Z,30.43
2018-01-12T09:04:43.204Z,26.53
2018-01-12T09:07:09.769Z,33.00
2018-01-12T09:09:36.727Z,26.37
2018-01-12T09:12:04.989Z,25.00
2018-01-12T09:14:44.089Z,31.83
2018-01-12T09:17:10.703Z,22.07
2018-01-12T09:19:47.408Z,24.17
2018-01-12T09:22:14.070Z,27.67
2018-01-12T09:24:43.705Z,27.10
2018-01-12T09:27:10.658Z,30.03
2018-01-12T09:29:37.875Z,24.17
2018-01-12T09:32:15.541Z,27.53
2018-01-12T09:34:46.853Z,28.43
2018-01-12T09:37:14.954Z,24.97
2018-01-12T09:39:43.054Z,29.10
2018-01-12T09:42:09.551Z,25.60
2018-01-12T09:44:36.454Z,25.50
2018-01-12T09:47:14.949Z,25.77
2018-01-12T09:49:46.841Z,32.17
2018-01-12T09:52:13.693Z,27.20
2018-01-12T09:54:40.696Z,28.70
2018-01-12T09:57:07.244Z,25.50
2018-01-12T09:59:49.968Z,34.43
2018-01-12T10:02:18.156Z,27.97
2018-01-12T10:04:46.261Z,42.27
2018-01-12T10:07:19.498Z,32.03
2018-01-12T10:09:47.592Z,19.00
2018-01-12T10:12:14.516Z,23.57
2018-01-12T10:14:41.404Z,56.67
2018-01-12T10:17:08.019Z,27.83
2018-01-12T10:22:46.348Z,30.33
2018-01-12T10:25:13.264Z,28.87
2018-01-12T10:27:40.248Z,24.90
2018-01-12T10:30:20.027Z,29.47
2018-01-12T10:32:46.562Z,37.33
2018-01-12T10:35:21.005Z,32.20
2018-01-12T10:37:47.548Z,22.60
2018-01-12T10:40:24.447Z,31.70
2018-01-12T10:42:51.131Z,26.50
2018-01-12T10:45:18.816Z,19.67
2018-01-12T10:48:03.508Z,26.83
2018-01-12T10:50:42.105Z,23.60
2018-01-12T10:53:08.596Z,38.73
2018-01-12T10:55:35.865Z,24.80
2018-01-12T10:58:03.111Z,43.13
2018-01-12T11:00:36.863Z,23.93
2018-01-12T11:03:07.437Z,28.60
2018-01-12T11:05:34.328Z,24.97
2018-01-12T11:08:01.216Z,28.17
2018-01-12T11:10:28.440Z,25.30
2018-01-12T11:12:56.764Z,20.90
2018-01-12T11:15:23.478Z,21.47
2018-01-12T11:17:51.096Z,23.97
2018-01-12T11:20:18.117Z,25.33
2018-01-12T11:22:46.397Z,27.80
2018-01-12T11:25:12.984Z,28.73
2018-01-12T11:27:39.582Z,25.40
2018-01-12T11:30:06.962Z,24.90
2018-01-12T11:32:34.501Z,26.23
2018-01-12T11:35:01.037Z,27.60
2018-01-12T11:37:27.567Z,24.77
2018-01-12T11:39:54.507Z,19.80
2018-01-12T11:42:21.100Z,19.97
2018-01-12T11:44:48.013Z,43.87
2018-01-12T11:47:14.644Z,25.87
2018-01-12T11:49:41.168Z,29.50
2018-01-12T11:52:08.213Z,27.27
2018-01-12T11:54:35.153Z,37.93
2018-01-12T11:57:01.658Z,25.07
2018-01-12T11:59:28.373Z,34.80
2018-01-12T12:01:55.019Z,41.63
2018-01-12T12:04:22.746Z,46.17
2018-01-12T12:06:49.751Z,28.60
2018-01-12T12:09:17.935Z,24.47
2018-01-12T12:11:44.478Z,33.33
2018-01-12T12:14:12.143Z,26.90
2018-01-12T12:16:38.654Z,27.37
2018-01-12T12:19:06.951Z,26.30
2018-01-12T12:33:04.345Z,18.60
2018-01-12T12:35:31.653Z,27.87
2018-01-12T12:37:58.561Z,23.47
2018-01-12T12:40:25.197Z,25.53
2018-01-12T12:42:52.493Z,25.67
2018-01-12T12:45:19.072Z,24.27
2018-01-12T12:47:46.010Z,26.57
2018-01-12T12:50:12.509Z,27.50
2018-01-12T12:52:39.784Z,32.23
2018-01-12T12:55:07.108Z,30.63
2018-01-12T12:57:33.669Z,30.87
2018-01-12T13:00:00.915Z,30.30
2018-01-12T13:02:39.862Z,31.93
2018-01-12T13:05:08.242Z,27.47
2018-01-12T13:07:34.799Z,37.50
2018-01-12T13:10:01.953Z,39.50
2018-01-12T13:12:29.406Z,36.20
2018-01-12T13:14:56.278Z,33.50
2018-01-12T13:17:24.508Z,23.30
2018-01-12T13:19:51.871Z,28.07
2018-01-12T13:22:19.779Z,30.17
2018-01-12T13:24:47.792Z,19.40
2018-01-12T13:27:14.531Z,23.70
2018-01-12T13:29:41.127Z,23.57
2018-01-12T13:32:07.965Z,23.67
2018-01-12T13:34:34.404Z,27.20
2018-01-12T13:37:00.910Z,30.47
2018-01-12T13:39:27.306Z,28.57
2018-01-12T13:41:54.042Z,20.60
2018-01-12T13:44:20.748Z,25.77
2018-01-12T13:46:48.099Z,24.90
2018-01-12T13:49:14.965Z,25.90
2018-01-12T13:51:42.436Z,28.20
2018-01-12T13:54:08.887Z,20.57
2018-01-12T13:56:35.305Z,21.47
2018-01-12T13:59:03.408Z,19.10
2018-01-12T14:01:30.076Z,20.20
2018-01-12T14:03:57.287Z,23.50
2018-01-12T14:06:23.864Z,24.37
2018-01-12T14:08:50.623Z,23.63
2018-01-12T14:11:17.515Z,25.37
2018-01-12T14:13:45.137Z,24.67
2018-01-12T14:16:12.377Z,29.70
2018-01-12T14:18:38.913Z,25.27
2018-01-12T14:21:05.515Z,26.67
2018-01-12T14:23:32.153Z,26.70
2018-01-12T14:25:59.064Z,27.80
2018-01-12T14:28:25.932Z,31.13
2018-01-12T14:30:52.461Z,25.60
2018-01-12T14:33:20.413Z,26.03
2018-01-12T14:35:47.728Z,25.93
2018-01-12T14:38:14.132Z,29.27
2018-01-12T14:40:41.400Z,29.30
2018-01-12T14:43:09.582Z,35.30
2018-01-12T14:45:36.793Z,33.73
2018-01-12T14:48:04.743Z,28.90
2018-01-12T14:50:31.612Z,30.10
2018-01-12T14:52:58.837Z,31.87
2018-01-12T14:55:26.084Z,30.97
2018-01-12T14:57:52.561Z,34.10
2018-01-12T15:00:21.617Z,29.17
2018-01-12T15:02:49.744Z,36.43
2018-01-12T15:05:17.324Z,33.10
2018-01-12T15:07:45.042Z,35.03
2018-01-12T15:10:12.950Z,30.77
2018-01-12T15:12:42.252Z,31.30
2018-01-12T15:15:09.430Z,34.60
2018-01-12T15:17:37.990Z,39.13
2018-01-12T15:20:04.922Z,28.60
2018-01-12T15:22:34.296Z,35.40
2018-01-12T15:25:01.703Z,38.63
2018-01-12T15:27:29.113Z,29.63
2018-01-12T15:29:57.243Z,33.73
2018-01-12T15:32:25.446Z,32.17
2018-01-12T15:34:52.957Z,32.30
2018-01-12T15:37:20.258Z,29.67
2018-01-12T15:39:48.911Z,32.13
2018-01-12T15:42:15.511Z,36.90
2018-01-12T15:44:41.990Z,31.40
2018-01-12T15:47:09.655Z,31.33
2018-01-12T15:49:36.769Z,30.33
2018-01-12T15:52:04.346Z,34.43
2018-01-12T15:54:32.555Z,38.00
2018-01-12T15:57:00.268Z,31.80
2018-01-12T15:59:27.442Z,30.23
2018-01-12T16:01:54.466Z,27.70
2018-01-12T16:04:20.917Z,33.20
2018-01-12T16:06:50.281Z,34.80
2018-01-12T16:09:16.662Z,35.57
2018-01-12T16:11:43.222Z,32.93
2018-01-12T16:14:10.029Z,32.43
2018-01-12T16:16:36.469Z,29.70
2018-01-12T16:19:04.002Z,32.23
2018-01-12T16:21:32.334Z,34.37
2018-01-12T16:23:59.127Z,29.17
2018-01-12T16:26:26.331Z,32.83
2018-01-12T16:28:52.827Z,30.93
2018-01-12T16:31:20.996Z,34.47
2018-01-12T16:33:47.420Z,29.77
2018-01-12T16:36:13.848Z,31.13
2018-01-12T16:38:40.422Z,32.13
2018-01-12T16:41:07.370Z,35.10
2018-01-12T16:43:35.005Z,30.90
2018-01-12T16:46:01.613Z,35.93
2018-01-12T16:48:29.870Z,35.23
2018-01-12T16:50:56.718Z,27.60
2018-01-12T16:53:23.990Z,32.23
2018-01-12T16:55:50.750Z,33.10
2018-01-12T16:58:17.195Z,32.07
2018-01-12T17:00:43.936Z,31.13
2018-01-12T17:03:10.444Z,34.47
2018-01-12T17:05:36.811Z,32.73
2018-01-12T17:08:04.695Z,35.03
2018-01-12T17:10:32.228Z,38.43
2018-01-12T17:12:59.580Z,37.77
2018-01-12T17:15:26.016Z,36.90
2018-01-12T17:17:53.505Z,32.63
2018-01-12T17:20:20.663Z,37.97
2018-01-12T17:22:47.123Z,39.20
2018-01-12T17:25:14.628Z,36.20
2018-01-12T17:27:41.679Z,39.93
2018-01-12T17:30:08.407Z,37.90
2018-01-12T17:32:35.565Z,33.63
2018-01-12T17:35:02.216Z,35.57
2018-01-12T17:37:28.562Z,44.60
2018-01-12T17:39:55.335Z,42.97
2018-01-12T17:42:22.555Z,34.63
2018-01-12T17:44:49.743Z,36.90
2018-01-12T17:47:16.146Z,37.50
2018-01-12T17:49:42.532Z,33.23
2018-01-12T17:52:09.781Z,34.87
2018-01-12T17:54:36.207Z,32.77
2018-01-12T17:57:02.775Z,47.27
2018-01-12T17:59:30.100Z,47.13
2018-01-12T18:01:57.970Z,38.07
2018-01-12T18:04:26.485Z,41.77
2018-01-12T18:06:53.639Z,38.50
2018-01-12T18:09:20.612Z,42.60
2018-01-12T18:11:47.873Z,48.83
2018-01-12T18:14:15.165Z,54.17
2018-01-12T18:16:43.423Z,46.30
2018-01-12T18:19:09.982Z,38.27
2018-01-12T18:21:37.198Z,44.97
2018-01-12T18:24:04.584Z,44.70
2018-01-12T18:26:32.076Z,37.47
2018-01-12T18:28:59.525Z,45.77
2018-01-12T18:31:27.400Z,38.83
2018-01-12T18:33:54.153Z,43.10
2018-01-12T18:36:20.654Z,41.13
2018-01-12T18:38:47.844Z,43.27
2018-01-12T18:41:15.156Z,44.13
2018-01-12T18:43:42.024Z,42.90
2018-01-12T18:46:10.167Z,42.63
2018-01-12T18:48:38.467Z,44.57
2018-01-12T18:51:06.365Z,52.80
2018-01-12T18:53:34.233Z,47.57
2018-01-12T18:56:00.751Z,43.60
2018-01-12T18:58:28.982Z,43.70
2018-01-12T19:00:56.068Z,49.07
2018-01-12T19:03:23.073Z,44.43
2018-01-12T19:05:50.900Z,47.87
2018-01-12T19:08:17.892Z,43.90
2018-01-12T19:10:44.404Z,48.13
2018-01-12T19:13:11.357Z,55.33
2018-01-12T19:15:39.435Z,55.80
2018-01-12T19:18:08.360Z,48.07
2018-01-12T19:20:34.790Z,48.97
2018-01-12T19:23:01.733Z,53.40
2018-01-12T19:25:29.399Z,47.40
2018-01-12T19:27:57.818Z,46.20
2018-01-12T19:30:25.520Z,48.13
2018-01-12T19:32:53.696Z,44.00
2018-01-12T19:35:21.103Z,46.80
2018-01-12T19:37:47.613Z,43.80
2018-01-12T19:40:14.872Z,53.13
2018-01-12T19:42:41.435Z,44.27
2018-01-12T19:45:09.052Z,42.83
2018-01-12T19:47:37.099Z,49.70
2018-01-12T19:50:03.597Z,48.47
2018-01-12T19:52:30.552Z,51.97
2018-01-12T19:54:57.824Z,58.07
2018-01-12T19:57:24.775Z,52.63
2018-01-12T19:59:51.473Z,51.20
2018-01-12T20:02:20.193Z,55.13
2018-01-12T20:04:47.270Z,46.47
2018-01-12T20:07:13.771Z,60.03
2018-01-12T20:09:41.288Z,59.13
2018-01-12T20:12:07.933Z,50.83
2018-01-12T20:14:34.508Z,50.63
2018-01-12T20:17:02.534Z,52.30
2018-01-12T20:19:30.525Z,44.73
2018-01-12T20:21:57.101Z,47.20
2018-01-12T20:24:24.360Z,50.40
2018-01-12T20:26:51.202Z,48.27
2018-01-12T20:29:17.750Z,51.07
2018-01-12T20:31:44.199Z,48.33
2018-01-12T20:34:10.986Z,57.50
2018-01-12T20:36:37.578Z,56.27
2018-01-12T20:39:04.359Z,58.83
2018-01-12T20:41:30.813Z,52.90
2018-01-12T20:43:57.676Z,56.67
2018-01-12T20:46:24.137Z,62.60
2018-01-12T20:48:52.239Z,51.83
2018-01-12T20:51:19.085Z,58.90
2018-01-12T20:53:45.656Z,62.50
2018-01-12T20:56:12.523Z,54.13
2018-01-12T20:58:38.951Z,59.00
2018-01-12T21:01:06.076Z,55.40
2018-01-12T21:03:33.258Z,57.83
2018-01-12T21:05:59.971Z,59.20
2018-01-12T21:08:27.105Z,57.57
2018-01-12T21:31:43.066Z,51.60
2018-01-12T21:34:09.864Z,54.43
2018-01-12T21:36:36.401Z,54.83
2018-01-12T21:39:02.977Z,44.77
2018-01-12T21:41:29.496Z,51.90
2018-01-12T21:43:56.393Z,53.67
2018-01-12T21:46:22.884Z,56.50
2018-01-12T21:48:50.179Z,56.90
2018-01-12T21:51:16.633Z,45.67
2018-01-12T21:53:43.286Z,56.97
2018-01-12T21:56:10.245Z,54.77
2018-01-12T21:58:36.852Z,53.53
2018-01-12T22:01:04.437Z,52.47
2018-01-12T22:03:31.855Z,45.83
2018-01-12T22:05:58.818Z,53.87
2018-01-12T22:08:25.970Z,62.73
2018-01-12T22:10:52.612Z,54.30
2018-01-12T22:13:19.179Z,57.40
2018-01-12T22:15:46.321Z,47.53
2018-01-12T22:18:13.127Z,59.30
2018-01-12T22:20:39.653Z,61.30
2018-01-12T22:48:46.657Z,60.43
2018-01-12T22:51:13.667Z,63.13
2018-01-12T22:53:40.237Z,67.70
2018-01-12T22:56:06.825Z,73.20
2018-01-12T22:58:34.536Z,66.47
2018-01-12T23:01:01.484Z,62.80
2018-01-12T23:03:28.515Z,62.30
2018-01-12T23:05:54.954Z,74.57
2018-01-12T23:08:21.411Z,60.50
2018-01-12T23:10:47.903Z,66.00
2018-01-12T23:13:15.610Z,66.87
2018-01-12T23:15:42.248Z,70.30
2018-01-12T23:18:08.696Z,63.83
2018-01-12T23:20:36.105Z,66.93
2018-01-12T23:34:26.545Z,61.50
2018-01-12T23:36:53.033Z,69.33
2018-01-12T23:39:19.521Z,71.73
2018-01-12T23:41:50.887Z,59.67
2018-01-12T23:44:17.326Z,61.90
2018-01-12T23:46:43.820Z,61.37
2018-01-12T23:49:10.606Z,60.93
2018-01-12T23:51:37.874Z,65.67
2018-01-12T23:54:04.314Z,75.30
2018-01-12T23:56:30.783Z,77.93
2018-01-12T23:58:57.142Z,79.17
